createdAt,value
2018-08-19T00:00:55.143Z,0.00
2018-08-19T00:01:55.177Z,0.00
2018-08-19T00:02:55.213Z,0.00
2018-08-19T00:03:55.252Z,0.00
2018-08-19T00:04:55.284Z,0.00
2018-08-19T00:05:55.320Z,0.00
2018-08-19T00:06:55.354Z,0.00
2018-08-19T00:07:55.391Z,0.00
2018-08-19T00:08:55.425Z,0.00
2018-08-19T00:09:55.460Z,0.00
2018-08-19T00:10:55.495Z,0.00
2018-08-19T00:11:55.531Z,0.00
2018-08-19T00:12:55.565Z,0.00
2018-08-19T00:13:55.601Z,0.00
2018-08-19T00:14:55.636Z,0.00
2018-08-19T00:15:55.671Z,0.00
2018-08-19T00:16:55.706Z,0.00
2018-08-19T00:17:55.741Z,0.00
2018-08-19T00:18:55.776Z,0.00
2018-08-19T00:19:55.811Z,0.00
2018-08-19T00:20:55.846Z,0.00
2018-08-19T00:21:55.881Z,0.00
2018-08-19T00:22:55.917Z,0.00
2018-08-19T00:23:55.952Z,0.00
2018-08-19T00:24:55.987Z,0.00
2018-08-19T00:25:56.349Z,0.00
2018-08-19T00:26:56.056Z,0.00
2018-08-19T00:27:56.116Z,0.00
2018-08-19T00:28:56.127Z,0.00
2018-08-19T00:29:56.182Z,0.00
2018-08-19T00:30:56.197Z,0.00
2018-08-19T00:31:56.232Z,0.00
2018-08-19T00:32:56.268Z,0.00
2018-08-19T00:33:56.301Z,0.00
2018-08-19T00:34:56.337Z,0.00
2018-08-19T00:35:56.372Z,0.00
2018-08-19T00:36:56.408Z,0.00
2018-08-19T00:37:56.441Z,0.00
2018-08-19T00:38:56.480Z,0.00
2018-08-19T00:39:56.513Z,0.00
2018-08-19T00:40:56.548Z,0.00
2018-08-19T00:41:56.581Z,0.00
2018-08-19T00:42:56.618Z,0.00
2018-08-19T00:43:56.652Z,0.00
2018-08-19T00:44:56.687Z,0.00
2018-08-19T00:45:56.721Z,0.00
2018-08-19T00:46:56.755Z,0.00
2018-08-19T00:47:56.794Z,0.00
2018-08-19T00:48:56.828Z,0.00
2018-08-19T00:49:56.861Z,0.00
2018-08-19T00:50:56.896Z,0.00
2018-08-19T00:51:56.931Z,0.00
2018-08-19T00:52:56.966Z,0.00
2018-08-19T00:53:56.999Z,0.00
2018-08-19T00:54:57.035Z,0.00
2018-08-19T00:55:57.070Z,0.00
2018-08-19T00:56:57.106Z,0.00
2018-08-19T00:57:57.142Z,0.00
2018-08-19T00:58:57.175Z,0.00
2018-08-19T00:59:57.209Z,0.00
2018-08-19T01:00:57.244Z,0.00
2018-08-19T01:01:57.278Z,0.00
2018-08-19T01:02:57.319Z,0.00
2018-08-19T01:03:57.348Z,0.00
2018-08-19T01:04:57.383Z,0.00
2018-08-19T01:05:57.418Z,0.00
2018-08-19T01:06:57.452Z,0.00
2018-08-19T01:07:57.488Z,0.00
2018-08-19T01:08:57.522Z,0.00
2018-08-19T01:09:57.556Z,0.00
2018-08-19T01:10:57.591Z,0.00
2018-08-19T01:11:57.625Z,0.00
2018-08-19T01:12:57.663Z,0.00
2018-08-19T01:13:57.695Z,0.00
2018-08-19T01:14:57.730Z,0.00
2018-08-19T01:15:57.765Z,0.00
2018-08-19T01:16:57.800Z,0.00
2018-08-19T01:17:57.834Z,0.00
2018-08-19T01:18:57.871Z,0.00
2018-08-19T01:19:57.908Z,0.00
2018-08-19T01:20:57.939Z,0.00
2018-08-19T01:21:57.973Z,0.00
2018-08-19T01:22:58.008Z,0.00
2018-08-19T01:23:58.043Z,0.00
2018-08-19T01:24:58.078Z,0.00
2018-08-19T01:25:58.112Z,0.00
2018-08-19T01:26:58.147Z,0.00
2018-08-19T01:27:58.182Z,0.00
2018-08-19T01:28:58.217Z,0.00
2018-08-19T01:29:58.251Z,0.00
2018-08-19T01:30:58.288Z,0.00
2018-08-19T01:31:58.319Z,0.00
2018-08-19T01:32:58.361Z,0.00
2018-08-19T01:33:58.389Z,0.00
2018-08-19T01:34:58.425Z,0.00
2018-08-19T01:35:58.458Z,0.00
2018-08-19T01:36:58.493Z,0.00
2018-08-19T01:37:58.530Z,0.00
2018-08-19T01:38:58.561Z,0.00
2018-08-19T01:39:58.598Z,0.00
2018-08-19T01:40:58.630Z,0.00
2018-08-19T01:41:58.665Z,0.00
2018-08-19T01:42:58.700Z,0.00
2018-08-19T01:43:58.735Z,0.00
2018-08-19T01:44:58.769Z,0.00
2018-08-19T01:45:58.803Z,0.00
2018-08-19T01:46:58.842Z,0.00
2018-08-19T01:47:58.871Z,0.00
2018-08-19T01:48:58.907Z,0.00
2018-08-19T01:49:58.940Z,0.00
2018-08-19T01:50:58.976Z,0.00
2018-08-19T01:51:59.013Z,0.00
2018-08-19T01:52:59.047Z,0.00
2018-08-19T01:53:59.079Z,0.00
2018-08-19T01:54:59.114Z,0.00
2018-08-19T01:55:59.148Z,0.00
2018-08-19T01:56:59.185Z,0.00
2018-08-19T01:57:59.216Z,0.00
2018-08-19T01:58:59.251Z,0.00
2018-08-19T01:59:59.286Z,0.00
2018-08-19T02:00:59.320Z,0.00
2018-08-19T02:01:59.353Z,0.00
2018-08-19T02:02:59.388Z,0.00
2018-08-19T02:03:59.423Z,0.00
2018-08-19T02:04:59.458Z,0.00
2018-08-19T02:05:59.491Z,0.00
2018-08-19T02:06:59.526Z,0.00
2018-08-19T02:07:59.561Z,0.00
2018-08-19T02:08:59.596Z,0.00
2018-08-19T02:09:59.629Z,0.00
2018-08-19T02:10:59.665Z,0.00
2018-08-19T02:11:59.699Z,0.00
2018-08-19T02:12:59.733Z,0.00
2018-08-19T02:13:59.768Z,0.00
2018-08-19T02:14:59.803Z,0.00
2018-08-19T02:15:59.837Z,0.00
2018-08-19T02:16:59.874Z,0.00
2018-08-19T02:17:59.905Z,0.00
2018-08-19T02:18:59.941Z,0.00
2018-08-19T02:19:59.975Z,0.00
2018-08-19T02:21:00.011Z,0.00
2018-08-19T02:22:00.050Z,0.00
2018-08-19T02:23:00.081Z,0.00
2018-08-19T02:24:00.114Z,0.00
2018-08-19T02:25:00.149Z,0.00
2018-08-19T02:26:00.182Z,0.00
2018-08-19T02:27:00.219Z,0.00
2018-08-19T02:28:00.253Z,0.00
2018-08-19T02:29:00.286Z,0.00
2018-08-19T02:30:00.321Z,0.00
2018-08-19T02:31:00.356Z,0.00
2018-08-19T02:32:00.391Z,0.00
2018-08-19T02:33:00.426Z,0.00
2018-08-19T02:34:00.464Z,0.00
2018-08-19T02:35:00.499Z,0.00
2018-08-19T02:36:00.531Z,0.00
2018-08-19T02:37:00.565Z,0.00
2018-08-19T02:38:00.602Z,0.00
2018-08-19T02:39:00.635Z,0.00
2018-08-19T02:40:00.669Z,0.00
2018-08-19T02:41:00.705Z,0.00
2018-08-19T02:42:00.738Z,0.00
2018-08-19T02:43:00.773Z,0.00
2018-08-19T02:44:00.808Z,0.00
2018-08-19T02:45:00.844Z,0.00
2018-08-19T02:46:00.880Z,0.00
2018-08-19T02:47:00.913Z,0.00
2018-08-19T02:48:00.948Z,0.00
2018-08-19T02:49:00.987Z,0.00
2018-08-19T02:50:01.017Z,0.00
2018-08-19T02:51:01.052Z,0.00
2018-08-19T02:52:01.089Z,0.00
2018-08-19T02:53:01.123Z,0.00
2018-08-19T02:54:01.157Z,0.00
2018-08-19T02:55:01.191Z,0.00
2018-08-19T02:56:01.430Z,0.00
2018-08-19T02:57:01.262Z,0.00
2018-08-19T02:58:01.300Z,0.00
2018-08-19T02:59:01.331Z,0.00
2018-08-19T03:00:01.366Z,0.00
2018-08-19T03:01:01.402Z,0.00
2018-08-19T03:02:01.436Z,0.00
2018-08-19T03:03:01.475Z,0.00
2018-08-19T03:04:01.506Z,0.00
2018-08-19T03:05:01.542Z,0.00
2018-08-19T03:07:01.611Z,0.00
2018-08-19T03:08:01.645Z,0.00
2018-08-19T03:09:01.682Z,0.00
2018-08-19T03:10:01.716Z,0.00
2018-08-19T03:11:01.751Z,0.00
2018-08-19T03:12:01.786Z,0.00
2018-08-19T03:13:01.822Z,0.00
2018-08-19T03:14:01.856Z,0.00
2018-08-19T03:15:01.945Z,0.00
2018-08-19T03:16:01.927Z,0.00
2018-08-19T03:17:01.964Z,0.00
2018-08-19T03:18:02.005Z,0.00
2018-08-19T03:19:02.031Z,0.00
2018-08-19T03:20:02.067Z,0.00
2018-08-19T03:21:02.102Z,0.00
2018-08-19T03:22:02.141Z,0.00
2018-08-19T03:23:02.172Z,0.00
2018-08-19T03:24:02.210Z,0.00
2018-08-19T03:25:02.243Z,0.00
2018-08-19T03:26:02.278Z,0.00
2018-08-19T03:27:02.321Z,0.00
2018-08-19T03:28:02.348Z,0.00
2018-08-19T03:29:02.384Z,0.00
2018-08-19T03:30:02.417Z,0.00
2018-08-19T03:31:02.454Z,0.00
2018-08-19T03:32:02.491Z,0.00
2018-08-19T03:33:02.534Z,0.00
2018-08-19T03:34:02.562Z,0.00
2018-08-19T03:35:02.594Z,0.00
2018-08-19T03:36:02.705Z,0.00
2018-08-19T03:37:02.668Z,0.00
2018-08-19T03:38:02.743Z,0.00
2018-08-19T03:39:02.735Z,0.00
2018-08-19T03:40:02.770Z,0.00
2018-08-19T03:41:02.806Z,0.00
2018-08-19T03:42:02.839Z,0.00
2018-08-19T03:43:02.875Z,0.00
2018-08-19T03:44:02.912Z,0.00
2018-08-19T03:45:02.946Z,0.00
2018-08-19T03:46:02.980Z,0.00
2018-08-19T03:47:03.044Z,0.00
2018-08-19T03:48:03.053Z,0.00
2018-08-19T03:49:03.089Z,0.00
2018-08-19T03:50:03.123Z,0.00
2018-08-19T03:51:03.157Z,0.00
2018-08-19T03:52:03.192Z,0.00
2018-08-19T03:53:03.231Z,0.00
2018-08-19T03:54:03.267Z,0.00
2018-08-19T03:55:03.297Z,0.00
2018-08-19T03:56:03.332Z,0.00
2018-08-19T03:57:03.368Z,0.00
2018-08-19T03:58:03.403Z,0.00
2018-08-19T03:59:03.438Z,0.00
2018-08-19T04:00:03.476Z,0.00
2018-08-19T04:01:03.508Z,0.00
2018-08-19T04:02:03.543Z,0.00
2018-08-19T04:03:03.577Z,0.00
2018-08-19T04:05:03.650Z,0.00
2018-08-19T04:06:03.683Z,0.00
2018-08-19T04:07:03.727Z,0.00
2018-08-19T04:08:03.754Z,0.00
2018-08-19T04:09:03.790Z,0.00
2018-08-19T04:10:03.825Z,0.00
2018-08-19T04:11:03.861Z,0.00
2018-08-19T04:12:03.895Z,0.00
2018-08-19T04:13:03.931Z,0.00
2018-08-19T04:14:03.965Z,0.00
2018-08-19T04:15:04.000Z,0.00
2018-08-19T04:16:04.034Z,0.00
2018-08-19T04:17:04.072Z,0.00
2018-08-19T04:18:04.105Z,0.00
2018-08-19T04:19:04.142Z,0.00
2018-08-19T04:20:04.176Z,0.00
2018-08-19T04:21:04.213Z,0.00
2018-08-19T04:22:04.248Z,0.00
2018-08-19T04:23:04.302Z,0.00
2018-08-19T04:24:04.318Z,0.00
2018-08-19T04:25:04.353Z,0.00
2018-08-19T04:26:04.387Z,0.00
2018-08-19T04:27:04.423Z,0.00
2018-08-19T04:28:04.458Z,0.00
2018-08-19T04:29:04.494Z,5.63
2018-08-19T04:30:04.528Z,5.63
2018-08-19T04:31:04.563Z,5.63
2018-08-19T04:32:04.600Z,5.63
2018-08-19T04:33:04.634Z,5.63
2018-08-19T04:34:04.669Z,5.63
2018-08-19T04:35:04.703Z,5.63
2018-08-19T04:36:04.739Z,5.63
2018-08-19T04:37:04.773Z,5.63
2018-08-19T04:38:04.840Z,11.25
2018-08-19T04:39:04.845Z,11.25
2018-08-19T04:40:04.880Z,11.25
2018-08-19T04:41:04.914Z,11.25
2018-08-19T04:42:04.952Z,11.25
2018-08-19T04:43:04.985Z,11.25
2018-08-19T04:44:05.022Z,16.88
2018-08-19T04:45:05.055Z,16.88
2018-08-19T04:46:05.090Z,16.88
2018-08-19T04:47:05.125Z,16.88
2018-08-19T04:48:05.161Z,16.88
2018-08-19T04:49:05.220Z,16.88
2018-08-19T04:50:05.231Z,22.50
2018-08-19T04:51:05.264Z,22.50
2018-08-19T04:52:05.302Z,22.50
2018-08-19T04:53:05.336Z,22.50
2018-08-19T04:54:05.375Z,22.50
2018-08-19T04:55:05.407Z,28.13
2018-08-19T04:56:05.464Z,28.13
2018-08-19T04:57:05.478Z,28.13
2018-08-19T04:58:05.535Z,28.13
2018-08-19T04:59:05.550Z,33.75
2018-08-19T05:00:05.587Z,33.75
2018-08-19T05:01:05.618Z,33.75
2018-08-19T05:02:05.750Z,33.75
2018-08-19T05:03:05.689Z,39.38
2018-08-19T05:04:05.723Z,39.38
2018-08-19T05:05:05.761Z,39.38
2018-08-19T05:06:05.794Z,39.38
2018-08-19T05:07:05.830Z,39.38
2018-08-19T05:08:05.982Z,39.38
2018-08-19T05:09:05.900Z,45.00
2018-08-19T05:10:05.938Z,45.00
2018-08-19T05:11:05.973Z,45.00
2018-08-19T05:12:06.006Z,50.63
2018-08-19T05:13:06.040Z,50.63
2018-08-19T05:14:06.077Z,50.63
2018-08-19T05:15:06.110Z,50.63
2018-08-19T05:16:06.147Z,50.63
2018-08-19T05:17:06.182Z,50.63
2018-08-19T05:18:06.217Z,56.25
2018-08-19T05:19:06.252Z,56.25
2018-08-19T05:20:06.289Z,61.88
2018-08-19T05:21:06.322Z,61.88
2018-08-19T05:22:06.358Z,67.50
2018-08-19T05:23:06.392Z,67.50
2018-08-19T05:24:06.429Z,73.13
2018-08-19T05:25:06.464Z,78.75
2018-08-19T05:26:06.500Z,78.75
2018-08-19T05:27:06.536Z,84.38
2018-08-19T05:28:06.571Z,84.38
2018-08-19T05:29:06.607Z,84.38
2018-08-19T05:30:06.642Z,90.00
2018-08-19T05:31:06.678Z,90.00
2018-08-19T05:32:06.716Z,95.63
2018-08-19T05:33:06.749Z,101.25
2018-08-19T05:34:06.784Z,101.25
2018-08-19T05:35:06.820Z,106.88
2018-08-19T05:36:06.864Z,106.88
2018-08-19T05:37:06.894Z,112.50
2018-08-19T05:38:06.965Z,112.50
2018-08-19T05:39:06.963Z,118.13
2018-08-19T05:40:06.999Z,123.75
2018-08-19T05:41:07.036Z,123.75
2018-08-19T05:42:07.068Z,129.38
2018-08-19T05:43:07.110Z,129.38
2018-08-19T05:44:07.142Z,135.00
2018-08-19T05:45:07.182Z,135.00
2018-08-19T05:46:07.214Z,135.00
2018-08-19T05:47:07.318Z,140.63
2018-08-19T05:48:07.285Z,140.63
2018-08-19T05:49:07.323Z,146.25
2018-08-19T05:50:07.358Z,146.25
2018-08-19T05:51:07.395Z,157.50
2018-08-19T05:52:07.430Z,151.88
2018-08-19T05:53:07.469Z,151.88
2018-08-19T05:54:07.573Z,151.88
2018-08-19T05:55:07.539Z,157.50
2018-08-19T05:56:07.575Z,157.50
2018-08-19T05:57:07.637Z,163.13
2018-08-19T05:58:07.648Z,163.13
2018-08-19T05:59:07.686Z,163.13
2018-08-19T06:00:07.721Z,163.13
2018-08-19T06:01:07.794Z,163.13
2018-08-19T06:02:07.794Z,163.13
2018-08-19T06:03:07.830Z,157.50
2018-08-19T06:04:07.883Z,157.50
2018-08-19T06:05:07.903Z,163.13
2018-08-19T06:06:07.940Z,163.13
2018-08-19T06:07:07.978Z,163.13
2018-08-19T06:08:08.014Z,168.75
2018-08-19T06:09:08.050Z,168.75
2018-08-19T06:10:08.089Z,174.38
2018-08-19T06:11:08.127Z,174.38
2018-08-19T06:12:08.160Z,180.00
2018-08-19T06:13:08.197Z,180.00
2018-08-19T06:14:08.240Z,180.00
2018-08-19T06:15:08.271Z,180.00
2018-08-19T06:16:08.307Z,180.00
2018-08-19T06:17:08.345Z,180.00
2018-08-19T06:18:08.384Z,185.63
2018-08-19T06:19:08.419Z,185.63
2018-08-19T06:20:08.455Z,185.63
2018-08-19T06:21:08.492Z,185.63
2018-08-19T06:22:08.529Z,185.63
2018-08-19T06:23:08.568Z,185.63
2018-08-19T06:24:08.603Z,185.63
2018-08-19T06:25:08.640Z,185.63
2018-08-19T06:26:08.676Z,185.63
2018-08-19T06:27:08.716Z,185.63
2018-08-19T06:28:08.751Z,185.63
2018-08-19T06:29:08.789Z,191.25
2018-08-19T06:30:08.826Z,191.25
2018-08-19T06:31:08.941Z,185.63
2018-08-19T06:32:08.900Z,185.63
2018-08-19T06:33:08.938Z,185.63
2018-08-19T06:34:08.974Z,185.63
2018-08-19T06:35:09.012Z,185.63
2018-08-19T06:36:09.049Z,185.63
2018-08-19T06:37:09.143Z,185.63
2018-08-19T06:38:09.128Z,185.63
2018-08-19T06:39:09.164Z,185.63
2018-08-19T06:40:09.199Z,191.25
2018-08-19T06:41:09.236Z,196.88
2018-08-19T06:42:09.273Z,202.50
2018-08-19T06:43:09.358Z,208.13
2018-08-19T06:44:09.349Z,213.75
2018-08-19T06:45:09.385Z,219.38
2018-08-19T06:46:09.422Z,219.38
2018-08-19T06:47:09.460Z,219.38
2018-08-19T06:48:09.502Z,225.00
2018-08-19T06:49:09.537Z,225.00
2018-08-19T06:50:09.574Z,230.63
2018-08-19T06:51:09.668Z,236.25
2018-08-19T06:52:09.703Z,241.88
2018-08-19T06:53:09.691Z,247.50
2018-08-19T06:54:09.724Z,247.50
2018-08-19T06:55:09.761Z,253.13
2018-08-19T06:56:09.801Z,258.75
2018-08-19T06:57:09.839Z,258.75
2018-08-19T06:58:09.876Z,270.00
2018-08-19T06:59:57.523Z,281.25
2018-08-19T07:00:57.518Z,286.88
2018-08-19T07:01:57.555Z,292.50
2018-08-19T07:02:57.591Z,298.13
2018-08-19T07:03:57.693Z,298.13
2018-08-19T07:04:57.668Z,298.13
2018-08-19T07:05:57.707Z,298.13
2018-08-19T07:06:57.744Z,298.13
2018-08-19T07:07:57.783Z,298.13
2018-08-19T07:08:57.822Z,303.75
2018-08-19T07:09:57.858Z,298.13
2018-08-19T07:10:57.899Z,298.13
2018-08-19T07:11:57.938Z,292.50
2018-08-19T07:12:57.976Z,286.88
2018-08-19T07:13:58.013Z,286.88
2018-08-19T07:14:58.050Z,286.88
2018-08-19T07:15:58.090Z,281.25
2018-08-19T07:16:58.129Z,281.25
2018-08-19T07:17:58.203Z,275.63
2018-08-19T07:18:58.210Z,270.00
2018-08-19T07:19:58.254Z,275.63
2018-08-19T07:20:58.283Z,281.25
2018-08-19T07:21:58.321Z,281.25
2018-08-19T07:22:58.360Z,275.63
2018-08-19T07:24:40.951Z,270.00
2018-08-19T07:26:41.029Z,270.00
2018-08-19T07:28:42.119Z,275.63
2018-08-19T07:29:41.191Z,270.00
2018-08-19T07:30:41.184Z,270.00
2018-08-19T07:31:41.221Z,270.00
2018-08-19T07:32:41.262Z,270.00
2018-08-19T07:33:41.299Z,270.00
2018-08-19T07:34:43.961Z,275.63
2018-08-19T07:35:41.378Z,275.63
2018-08-19T07:36:41.458Z,286.88
2018-08-19T07:37:41.455Z,298.13
2018-08-19T07:38:41.494Z,303.75
2018-08-19T07:39:41.534Z,309.38
2018-08-19T07:40:41.570Z,320.63
2018-08-19T07:41:41.610Z,337.50
2018-08-19T07:42:41.650Z,331.88
2018-08-19T07:43:41.690Z,337.50
2018-08-19T07:44:41.727Z,337.50
2018-08-19T07:45:41.766Z,343.13
2018-08-19T07:46:41.807Z,337.50
2018-08-19T07:47:41.843Z,337.50
2018-08-19T07:48:41.883Z,331.88
2018-08-19T07:49:41.923Z,326.25
2018-08-19T07:50:41.965Z,326.25
2018-08-19T07:51:42.080Z,326.25
2018-08-19T07:52:42.038Z,331.88
2018-08-19T07:53:42.080Z,326.25
2018-08-19T07:54:42.119Z,326.25
2018-08-19T07:55:42.157Z,326.25
2018-08-19T07:56:42.196Z,326.25
2018-08-19T07:57:42.235Z,326.25
2018-08-19T07:58:42.275Z,315.00
2018-08-19T07:59:42.314Z,309.38
2018-08-19T08:00:42.354Z,309.38
2018-08-19T08:01:42.393Z,309.38
2018-08-19T08:02:42.433Z,309.38
2018-08-19T08:03:42.473Z,331.88
2018-08-19T08:04:42.512Z,320.63
2018-08-19T08:05:42.552Z,326.25
2018-08-19T08:06:42.591Z,343.13
2018-08-19T08:07:42.631Z,337.50
2018-08-19T08:08:42.670Z,348.75
2018-08-19T08:09:45.135Z,337.50
2018-08-19T08:10:42.749Z,331.88
2018-08-19T08:11:42.793Z,331.88
2018-08-19T08:12:42.828Z,331.88
2018-08-19T08:13:42.884Z,331.88
2018-08-19T08:14:42.909Z,326.25
2018-08-19T08:15:42.950Z,326.25
2018-08-19T08:17:43.030Z,337.50
2018-08-19T08:18:43.065Z,343.13
2018-08-19T08:19:43.104Z,348.75
2018-08-19T08:20:43.145Z,371.25
2018-08-19T08:21:43.324Z,376.88
2018-08-19T08:22:43.224Z,393.75
2018-08-19T08:23:43.269Z,410.63
2018-08-19T08:24:43.304Z,421.88
2018-08-19T08:25:43.343Z,433.13
2018-08-19T08:26:43.385Z,438.75
2018-08-19T08:27:43.421Z,444.38
2018-08-19T08:28:43.462Z,444.38
2018-08-19T08:29:43.502Z,444.38
2018-08-19T08:30:43.543Z,455.63
2018-08-19T08:31:43.582Z,495.00
2018-08-19T08:32:43.623Z,455.63
2018-08-19T08:33:43.661Z,438.75
2018-08-19T08:34:43.702Z,438.75
2018-08-19T08:35:43.741Z,438.75
2018-08-19T08:36:43.781Z,444.38
2018-08-19T08:37:43.821Z,444.38
2018-08-19T08:38:43.863Z,450.00
2018-08-19T08:39:43.901Z,455.63
2018-08-19T08:40:44.008Z,461.25
2018-08-19T08:41:43.981Z,478.13
2018-08-19T08:42:44.021Z,489.38
2018-08-19T08:43:44.060Z,511.88
2018-08-19T08:44:44.205Z,523.13
2018-08-19T08:45:44.140Z,523.13
2018-08-19T08:46:44.181Z,540.00
2018-08-19T08:47:44.365Z,562.50
2018-08-19T08:48:44.261Z,568.13
2018-08-19T08:49:44.302Z,579.38
2018-08-19T08:50:44.341Z,596.25
2018-08-19T08:51:44.383Z,641.25
2018-08-19T08:52:44.423Z,641.25
2018-08-19T08:53:44.464Z,601.88
2018-08-19T08:54:44.503Z,590.63
2018-08-19T08:55:44.543Z,624.38
2018-08-19T08:56:44.584Z,618.75
2018-08-19T08:57:44.625Z,590.63
2018-08-19T08:58:44.670Z,585.00
2018-08-19T08:59:44.706Z,573.75
2018-08-19T09:00:44.747Z,579.38
2018-08-19T09:01:44.796Z,568.13
2018-08-19T09:02:44.829Z,568.13
2018-08-19T09:03:44.868Z,573.75
2018-08-19T09:04:44.911Z,579.38
2018-08-19T09:05:44.950Z,573.75
2018-08-19T09:06:44.995Z,523.13
2018-08-19T09:07:45.035Z,540.00
2018-08-19T09:08:45.076Z,556.88
2018-08-19T09:09:45.116Z,590.63
2018-08-19T09:10:45.169Z,601.88
2018-08-19T09:11:45.200Z,607.50
2018-08-19T09:12:45.244Z,613.13
2018-08-19T09:13:45.329Z,551.25
2018-08-19T09:14:45.323Z,551.25
2018-08-19T09:15:45.365Z,551.25
2018-08-19T09:16:45.408Z,556.88
2018-08-19T09:17:45.450Z,573.75
2018-08-19T09:18:45.491Z,579.38
2018-08-19T09:19:45.533Z,579.38
2018-08-19T09:20:45.574Z,573.75
2018-08-19T09:21:45.616Z,579.38
2018-08-19T09:22:45.663Z,596.25
2018-08-19T09:23:45.698Z,601.88
2018-08-19T09:24:45.739Z,680.63
2018-08-19T09:25:45.781Z,680.63
2018-08-19T09:26:45.822Z,641.25
2018-08-19T09:27:45.868Z,658.13
2018-08-19T09:28:46.107Z,675.00
2018-08-19T09:29:45.947Z,680.63
2018-08-19T09:30:45.988Z,663.75
2018-08-19T09:31:46.031Z,630.00
2018-08-19T09:32:46.077Z,641.25
2018-08-19T09:33:46.113Z,646.88
2018-08-19T09:34:46.155Z,646.88
2018-08-19T09:35:46.196Z,646.88
2018-08-19T09:36:46.239Z,641.25
2018-08-19T09:37:46.281Z,641.25
2018-08-19T09:38:46.322Z,635.63
2018-08-19T09:39:46.365Z,641.25
2018-08-19T09:40:46.544Z,641.25
2018-08-19T09:41:46.448Z,646.88
2018-08-19T09:42:46.491Z,652.50
2018-08-19T09:43:46.537Z,652.50
2018-08-19T09:44:46.575Z,658.13
2018-08-19T09:45:46.615Z,669.38
2018-08-19T09:46:46.660Z,725.63
2018-08-19T09:47:46.811Z,1141.88
2018-08-19T09:48:46.744Z,1715.63
2018-08-19T09:49:46.786Z,2058.75
2018-08-19T09:50:46.831Z,2058.75
2018-08-19T09:51:46.872Z,2126.25
2018-08-19T09:52:46.916Z,2081.25
2018-08-19T09:53:46.963Z,2070.00
2018-08-19T09:55:29.561Z,2103.75
2018-08-19T09:56:29.832Z,2131.88
2018-08-19T09:57:29.655Z,2205.00
2018-08-19T09:58:29.696Z,2165.63
2018-08-19T09:59:29.742Z,2086.88
2018-08-19T10:00:29.792Z,2070.00
2018-08-19T10:01:29.837Z,2092.50
2018-08-19T10:02:29.882Z,2115.00
2018-08-19T10:03:29.928Z,2272.50
2018-08-19T10:04:30.308Z,2323.13
2018-08-19T10:05:30.023Z,2283.75
2018-08-19T10:06:30.071Z,2171.25
2018-08-19T10:07:30.151Z,2244.38
2018-08-19T10:08:30.171Z,2396.25
2018-08-19T10:09:30.215Z,2452.50
2018-08-19T10:10:30.263Z,2295.00
2018-08-19T10:11:30.312Z,2199.38
2018-08-19T10:12:30.362Z,2334.38
2018-08-19T10:13:30.417Z,2373.75
2018-08-19T10:14:30.462Z,2351.25
2018-08-19T10:15:30.509Z,2407.50
2018-08-19T10:16:30.558Z,2396.25
2018-08-19T10:17:30.609Z,2368.13
2018-08-19T10:18:30.658Z,2356.88
2018-08-19T10:19:30.711Z,2379.38
2018-08-19T10:20:30.759Z,2413.13
2018-08-19T10:21:30.814Z,2486.25
2018-08-19T10:22:30.859Z,2351.25
2018-08-19T10:23:30.935Z,2385.00
2018-08-19T10:24:30.985Z,2531.25
2018-08-19T10:25:31.012Z,2385.00
2018-08-19T10:26:31.072Z,2385.00
2018-08-19T10:27:31.115Z,2430.00
2018-08-19T10:28:31.166Z,2463.75
2018-08-19T10:29:31.218Z,2435.63
2018-08-19T10:30:31.266Z,2413.13
2018-08-19T10:31:31.320Z,2446.88
2018-08-19T10:32:31.372Z,2593.13
2018-08-19T10:33:31.423Z,2536.88
2018-08-19T10:34:31.474Z,2598.75
2018-08-19T10:35:31.527Z,2632.50
2018-08-19T10:36:31.577Z,2761.88
2018-08-19T10:37:31.632Z,2649.38
2018-08-19T10:38:31.680Z,2621.25
2018-08-19T10:39:31.734Z,2553.75
2018-08-19T10:40:31.789Z,2508.75
2018-08-19T10:41:31.839Z,2525.63
2018-08-19T10:42:31.890Z,2666.25
2018-08-19T10:43:31.942Z,2660.63
2018-08-19T10:44:31.995Z,2604.38
2018-08-19T10:45:32.047Z,2587.50
2018-08-19T10:46:32.099Z,2548.13
2018-08-19T10:47:32.150Z,2615.63
2018-08-19T10:48:32.203Z,2615.63
2018-08-19T10:49:32.256Z,2677.50
2018-08-19T10:50:32.310Z,2671.88
2018-08-19T10:51:32.359Z,2469.38
2018-08-19T10:52:32.414Z,2244.38
2018-08-19T10:53:32.472Z,2311.88
2018-08-19T10:54:32.519Z,2660.63
2018-08-19T10:55:32.571Z,2666.25
2018-08-19T10:56:32.624Z,2733.75
2018-08-19T10:57:32.676Z,2728.13
2018-08-19T10:58:32.822Z,2688.75
2018-08-19T10:59:32.780Z,2638.13
2018-08-19T11:00:32.837Z,2559.38
2018-08-19T11:01:32.887Z,2728.13
2018-08-19T11:02:32.939Z,2896.88
2018-08-19T11:03:32.991Z,2812.50
2018-08-19T11:04:33.045Z,2773.13
2018-08-19T11:05:33.098Z,2711.25
2018-08-19T11:06:33.200Z,2745.00
2018-08-19T11:07:33.203Z,2716.88
2018-08-19T11:08:33.258Z,2649.38
2018-08-19T11:09:33.310Z,2750.63
2018-08-19T11:10:33.362Z,2767.50
2018-08-19T11:11:33.414Z,2694.38
2018-08-19T11:12:33.468Z,2683.13
2018-08-19T11:13:33.624Z,2683.13
2018-08-19T11:14:33.573Z,2615.63
2018-08-19T11:15:33.627Z,2677.50
2018-08-19T11:16:33.680Z,2739.38
2018-08-19T11:17:33.938Z,2767.50
2018-08-19T11:18:33.786Z,2790.00
2018-08-19T11:19:33.839Z,2790.00
2018-08-19T11:20:33.893Z,2913.75
2018-08-19T11:21:33.948Z,2733.75
2018-08-19T11:22:33.998Z,2840.63
2018-08-19T11:23:34.052Z,2863.13
2018-08-19T11:24:34.104Z,2896.88
2018-08-19T11:25:34.158Z,2745.00
2018-08-19T11:26:34.241Z,2649.38
2018-08-19T11:27:34.330Z,2846.25
2018-08-19T11:28:34.318Z,2829.38
2018-08-19T11:29:34.370Z,2795.63
2018-08-19T11:30:34.425Z,2728.13
2018-08-19T11:31:34.623Z,2812.50
2018-08-19T11:32:34.533Z,2857.50
2018-08-19T11:33:34.583Z,2835.00
2018-08-19T11:34:34.637Z,2835.00
2018-08-19T11:35:34.690Z,2925.00
2018-08-19T11:36:34.745Z,2958.75
2018-08-19T11:37:34.803Z,2885.63
2018-08-19T11:38:34.854Z,2902.50
2018-08-19T11:39:34.905Z,2863.13
2018-08-19T11:40:34.959Z,2773.13
2018-08-19T11:41:35.014Z,2975.63
2018-08-19T11:42:35.068Z,3003.75
2018-08-19T11:43:35.120Z,2908.13
2018-08-19T11:44:35.174Z,2885.63
2018-08-19T11:45:35.230Z,2851.88
2018-08-19T11:46:35.283Z,2773.13
2018-08-19T11:47:38.569Z,2823.75
2018-08-19T11:48:35.417Z,2835.00
2018-08-19T11:49:35.776Z,2812.50
2018-08-19T11:50:35.501Z,2846.25
2018-08-19T11:51:35.556Z,2868.75
2018-08-19T11:52:35.608Z,2958.75
2018-08-19T11:53:35.668Z,2874.38
2018-08-19T11:54:35.716Z,2722.50
2018-08-19T11:55:35.772Z,2818.13
2018-08-19T11:56:35.829Z,2812.50
2018-08-19T11:57:35.882Z,2925.00
2018-08-19T11:58:35.937Z,2958.75
2018-08-19T11:59:35.994Z,2705.63
2018-08-19T12:00:36.045Z,2660.63
2018-08-19T12:01:36.101Z,2452.50
2018-08-19T12:02:36.157Z,2463.75
2018-08-19T12:03:36.211Z,2553.75
2018-08-19T12:04:36.266Z,2694.38
2018-08-19T12:05:36.320Z,2728.13
2018-08-19T12:06:36.376Z,2840.63
2018-08-19T12:07:36.431Z,2863.13
2018-08-19T12:08:36.485Z,2902.50
2018-08-19T12:09:36.546Z,2863.13
2018-08-19T12:10:36.595Z,2801.25
2018-08-19T12:11:36.649Z,2745.00
2018-08-19T12:12:36.707Z,2745.00
2018-08-19T12:13:36.761Z,2784.38
2018-08-19T12:14:36.815Z,2846.25
2018-08-19T12:15:36.871Z,2829.38
2018-08-19T12:16:36.930Z,2750.63
2018-08-19T12:17:36.982Z,2795.63
2018-08-19T12:18:37.036Z,2885.63
2018-08-19T12:19:37.092Z,2880.00
2018-08-19T12:20:37.147Z,2818.13
2018-08-19T12:21:37.203Z,2795.63
2018-08-19T12:22:37.256Z,2728.13
2018-08-19T12:23:37.310Z,2806.88
2018-08-19T12:24:37.370Z,2851.88
2018-08-19T12:25:37.421Z,2823.75
2018-08-19T12:26:37.476Z,2801.25
2018-08-19T12:27:37.664Z,2835.00
2018-08-19T12:28:37.589Z,2925.00
2018-08-19T12:29:37.642Z,2908.13
2018-08-19T12:30:37.695Z,2885.63
2018-08-19T12:31:37.753Z,2795.63
2018-08-19T12:32:37.807Z,2936.25
2018-08-19T12:33:37.861Z,2975.63
2018-08-19T12:34:37.918Z,2874.38
2018-08-19T12:35:37.973Z,2750.63
2018-08-19T12:36:38.028Z,2784.38
2018-08-19T12:37:38.175Z,2823.75
2018-08-19T12:38:38.138Z,2716.88
2018-08-19T12:39:38.192Z,2638.13
2018-08-19T12:40:38.250Z,2671.88
2018-08-19T12:41:38.304Z,2812.50
2018-08-19T12:42:38.357Z,2790.00
2018-08-19T12:43:38.415Z,2806.88
2018-08-19T12:44:38.523Z,2863.13
2018-08-19T12:45:38.525Z,2677.50
2018-08-19T12:46:38.579Z,2750.63
2018-08-19T12:47:38.635Z,2829.38
2018-08-19T12:48:38.691Z,2857.50
2018-08-19T12:49:38.745Z,2767.50